Time;durP1;ratioP1;P1;durP2;ratioP2;P2;SDS_P1;SDS_P2;PMS_P1;PMS_P2;Temp;Humidity;BMP_temperature;BMP_pressure;BME280_temperature;BME280_humidity;BME280_pressure;Samples;Min_cycle;Max_cycle;Signal;HPM_P1;HPM_P2
2021/05/14 00:00:59;;;;;;;242.75;44.00;;;10.40;99.90;;;;;;10433874;28;20049;-61
2021/05/14 00:06:02;;;;;;;287.13;48.72;;;10.40;99.90;;;;;;10432462;28;20094;-61
2021/05/14 00:11:03;;;;;;;213.13;45.83;;;10.40;99.90;;;;;;10419649;28;20494;-62
2021/05/14 00:16:07;;;;;;;255.65;45.97;;;10.30;99.90;;;;;;10429425;28;20053;-62
2021/05/14 00:21:09;;;;;;;305.63;50.92;;;10.20;99.90;;;;;;10431637;28;20057;-61
2021/05/14 00:26:10;;;;;;;214.05;44.60;;;10.20;99.90;;;;;;10434069;28;20496;-62
2021/05/14 00:31:12;;;;;;;220.57;44.47;;;10.20;99.90;;;;;;10422641;28;20053;-61
2021/05/14 00:36:14;;;;;;;255.07;47.53;;;10.20;99.90;;;;;;10429864;28;20041;-62
2021/05/14 00:41:15;;;;;;;336.98;54.38;;;10.40;99.90;;;;;;10439297;28;20489;-61
2021/05/14 00:46:16;;;;;;;257.80;53.38;;;10.60;99.90;;;;;;10428040;28;20057;-62
2021/05/14 00:51:18;;;;;;;300.33;53.58;;;10.60;99.90;;;;;;10424416;28;20059;-61
2021/05/14 00:56:20;;;;;;;316.63;52.93;;;10.70;99.90;;;;;;10430089;28;20055;-62
2021/05/14 01:01:21;;;;;;;306.85;52.25;;;10.80;99.90;;;;;;10422731;28;20071;-61
2021/05/14 01:06:23;;;;;;;239.95;45.17;;;10.80;99.90;;;;;;10417426;28;20049;-62
2021/05/14 01:11:24;;;;;;;203.80;43.13;;;10.80;99.90;;;;;;10422978;28;20049;-62
2021/05/14 01:16:26;;;;;;;221.10;46.22;;;10.70;99.90;;;;;;10422474;28;20044;-61
2021/05/14 01:21:28;;;;;;;246.20;47.38;;;10.60;99.90;;;;;;10433174;28;20060;-61
2021/05/14 01:26:29;;;;;;;436.77;56.53;;;10.60;99.90;;;;;;10426747;28;20049;-61
2021/05/14 01:31:31;;;;;;;235.13;46.05;;;10.70;99.90;;;;;;10425779;28;20079;-63
2021/05/14 01:36:33;;;;;;;308.10;49.15;;;10.60;99.90;;;;;;10435402;28;20053;-62
2021/05/14 01:41:35;;;;;;;272.65;46.08;;;10.50;99.90;;;;;;10434472;28;20478;-62
2021/05/14 01:46:36;;;;;;;307.15;47.80;;;10.40;99.90;;;;;;10427569;28;20077;-61
2021/05/14 01:51:38;;;;;;;400.13;53.20;;;10.30;99.90;;;;;;10429791;28;20063;-61
2021/05/14 01:56:43;;;;;;;333.93;49.67;;;10.20;99.90;;;;;;10414316;28;20143;-61
2021/05/14 02:01:44;;;;;;;275.35;49.95;;;10.30;99.90;;;;;;10416971;28;20080;-61
2021/05/14 02:06:46;;;;;;;209.43;47.03;;;10.20;99.90;;;;;;10424765;28;20053;-61
2021/05/14 02:11:48;;;;;;;180.33;44.33;;;10.10;99.90;;;;;;10429988;28;20045;-61
2021/05/14 02:16:49;;;;;;;169.20;43.72;;;10.00;99.90;;;;;;10426409;28;20044;-60
2021/05/14 02:21:51;;;;;;;214.23;45.78;;;9.90;99.90;;;;;;10444114;28;20061;-60
2021/05/14 02:26:52;;;;;;;180.27;45.80;;;9.80;99.90;;;;;;10428401;28;20041;-60
2021/05/14 02:31:53;;;;;;;236.88;51.22;;;9.70;99.90;;;;;;10422689;28;20132;-61
2021/05/14 02:36:56;;;;;;;313.27;59.35;;;9.60;99.90;;;;;;10428312;28;20068;-60
2021/05/14 02:41:58;;;;;;;250.80;56.83;;;9.70;99.90;;;;;;10423580;28;20132;-60
2021/05/14 02:46:59;;;;;;;235.75;53.67;;;9.80;99.90;;;;;;10436229;28;20140;-61
2021/05/14 02:52:01;;;;;;;351.83;55.72;;;9.80;99.90;;;;;;10418969;28;20132;-61
2021/05/14 02:57:03;;;;;;;328.23;55.27;;;9.80;99.90;;;;;;10441921;28;20136;-61
2021/05/14 03:02:04;;;;;;;336.20;62.37;;;9.80;99.90;;;;;;10427363;28;20123;-60
2021/05/14 03:07:06;;;;;;;426.65;78.70;;;9.80;99.90;;;;;;10433242;28;20106;-62
2021/05/14 03:12:08;;;;;;;436.83;77.77;;;9.90;99.90;;;;;;10439371;28;20139;-61
2021/05/14 03:17:10;;;;;;;319.42;71.03;;;10.00;99.90;;;;;;10436874;28;20054;-61
2021/05/14 03:22:12;;;;;;;296.05;66.45;;;10.00;99.90;;;;;;10440054;28;20049;-62
2021/05/14 03:27:13;;;;;;;295.80;59.92;;;10.00;99.90;;;;;;10438072;28;20045;-61
2021/05/14 03:32:15;;;;;;;271.00;53.97;;;10.00;99.90;;;;;;10429696;28;20052;-62
2021/05/14 03:37:17;;;;;;;366.23;56.55;;;10.00;99.90;;;;;;10437902;28;20045;-62
2021/05/14 03:42:23;;;;;;;229.80;48.70;;;10.00;99.90;;;;;;10439299;28;20128;-61
2021/05/14 03:47:24;;;;;;;217.43;47.38;;;10.00;99.90;;;;;;10436128;28;20056;-61
2021/05/14 03:52:26;;;;;;;226.30;55.03;;;10.00;99.90;;;;;;10432849;28;20503;-62
2021/05/14 03:57:28;;;;;;;201.77;48.67;;;9.80;99.90;;;;;;10433903;28;20057;-62
2021/05/14 04:02:29;;;;;;;306.35;51.97;;;9.80;99.90;;;;;;10427636;28;20041;-62
2021/05/14 04:07:31;;;;;;;246.13;51.08;;;9.70;99.90;;;;;;10425951;28;20124;-62
2021/05/14 04:17:52;;;;;;;176.18;45.53;;;9.70;99.90;;;;;;10424473;28;20053;-61
2021/05/14 04:22:54;;;;;;;193.63;44.10;;;9.60;99.90;;;;;;10433894;28;20086;-62
2021/05/14 04:27:55;;;;;;;231.70;51.05;;;9.70;99.90;;;;;;10414496;28;20136;-61
2021/05/14 04:32:58;;;;;;;224.85;51.28;;;9.70;99.90;;;;;;10419494;28;20144;-61
2021/05/14 04:38:01;;;;;;;203.75;46.70;;;9.80;99.90;;;;;;10417171;28;20489;-62
2021/05/14 04:43:03;;;;;;;162.95;40.35;;;10.00;99.90;;;;;;10418672;28;20137;-61
2021/05/14 04:48:05;;;;;;;173.70;38.53;;;10.10;99.90;;;;;;10427004;28;20045;-62
2021/05/14 04:53:10;;;;;;;168.80;36.83;;;10.20;99.90;;;;;;10426019;28;20045;-61
2021/05/14 04:58:11;;;;;;;212.48;38.65;;;10.30;99.90;;;;;;10430960;28;21034;-61
2021/05/14 05:03:13;;;;;;;158.45;37.28;;;10.50;99.90;;;;;;10429886;28;20164;-61
2021/05/14 05:08:15;;;;;;;133.75;33.90;;;10.70;99.90;;;;;;10438507;28;21473;-61
2021/05/14 05:13:17;;;;;;;222.50;40.07;;;10.90;99.90;;;;;;10431734;28;20059;-61
2021/05/14 05:18:18;;;;;;;165.77;36.42;;;11.00;99.90;;;;;;10433632;28;20045;-60
2021/05/14 05:23:20;;;;;;;170.82;36.58;;;11.10;99.90;;;;;;10425720;28;20421;-62
2021/05/14 05:28:22;;;;;;;184.17;37.60;;;11.40;99.90;;;;;;10417259;28;20069;-62
2021/05/14 05:33:23;;;;;;;172.33;38.37;;;11.40;99.90;;;;;;10402363;28;20186;-61
2021/05/14 05:38:25;;;;;;;243.60;40.17;;;11.40;99.90;;;;;;10423579;28;20076;-61
2021/05/14 05:43:27;;;;;;;179.93;38.97;;;11.50;99.90;;;;;;10426376;28;20048;-61
2021/05/14 05:48:28;;;;;;;181.77;38.70;;;11.50;99.90;;;;;;10421236;28;20040;-61
2021/05/14 05:53:30;;;;;;;204.50;41.88;;;11.60;99.90;;;;;;10418985;28;20132;-61
2021/05/14 05:58:32;;;;;;;188.63;39.17;;;11.80;99.90;;;;;;10420404;28;20063;-62
2021/05/14 06:03:33;;;;;;;189.53;39.60;;;12.10;99.90;;;;;;10426125;28;20041;-61
2021/05/14 06:08:35;;;;;;;201.93;38.88;;;12.40;99.90;;;;;;10432576;28;20056;-62
2021/05/14 06:13:37;;;;;;;211.93;40.53;;;12.50;99.90;;;;;;10422533;28;20498;-62
2021/05/14 06:18:41;;;;;;;259.67;41.35;;;12.70;99.90;;;;;;10426403;28;20331;-61
2021/05/14 06:23:43;;;;;;;191.57;38.67;;;12.60;99.90;;;;;;10425070;28;20055;-62
2021/05/14 06:28:44;;;;;;;278.57;43.37;;;12.50;99.90;;;;;;10430394;28;20174;-61
2021/05/14 06:33:45;;;;;;;200.70;42.80;;;12.70;99.90;;;;;;10433305;28;20059;-62
2021/05/14 06:38:47;;;;;;;214.65;44.53;;;13.30;99.90;;;;;;10431851;28;20049;-62
2021/05/14 06:43:49;;;;;;;200.57;45.57;;;13.00;99.90;;;;;;10426083;28;20069;-62
2021/05/14 06:48:50;;;;;;;187.10;41.90;;;13.40;99.90;;;;;;10435401;28;20082;-61
2021/05/14 06:53:52;;;;;;;156.68;40.55;;;13.80;99.90;;;;;;10430870;28;20053;-62
2021/05/14 06:58:54;;;;;;;144.63;39.70;;;15.00;99.90;;;;;;10436694;28;20148;-62
2021/05/14 07:03:55;;;;;;;105.40;35.87;;;16.70;99.90;;;;;;10434693;28;20483;-61
2021/05/14 07:08:58;;;;;;;100.05;35.60;;;17.40;99.90;;;;;;10425081;28;20048;-61
2021/05/14 07:13:59;;;;;;;143.40;40.55;;;16.80;99.90;;;;;;10428339;28;20053;-63
2021/05/14 07:19:00;;;;;;;77.25;34.85;;;19.10;99.90;;;;;;10435725;28;20055;-61
2021/05/14 07:24:03;;;;;;;79.22;33.40;;;22.40;96.10;;;;;;10422537;28;20052;-61
2021/05/14 07:29:06;;;;;;;63.70;33.00;;;23.10;93.50;;;;;;10434455;28;20129;-62
2021/05/14 07:34:07;;;;;;;73.40;33.45;;;21.40;96.70;;;;;;10432460;28;20045;-61
2021/05/14 07:39:09;;;;;;;75.20;34.95;;;19.60;99.90;;;;;;10429087;28;20059;-60
2021/05/14 07:44:11;;;;;;;67.55;34.13;;;20.30;99.90;;;;;;10424769;28;20083;-60
2021/05/14 07:49:12;;;;;;;;;;;21.80;97.70;;;;;;10435379;28;20378;-60
2021/05/14 07:54:14;;;;;;;62.88;33.17;;;21.60;98.90;;;;;;10428199;28;20004;-61
2021/05/14 07:59:16;;;;;;;61.42;32.42;;;23.00;97.80;;;;;;10425827;28;20053;-60
2021/05/14 08:04:17;;;;;;;41.45;28.25;;;25.40;91.00;;;;;;10427147;28;20385;-60
2021/05/14 08:09:21;;;;;;;39.67;26.58;;;27.20;84.90;;;;;;10436094;28;20102;-61
2021/05/14 08:14:23;;;;;;;41.95;28.48;;;27.30;81.30;;;;;;10435652;28;20188;-61
2021/05/14 08:19:25;;;;;;;35.38;24.92;;;26.40;85.60;;;;;;10424106;28;20128;-62
2021/05/14 08:24:27;;;;;;;23.20;18.73;;;28.60;81.50;;;;;;10424190;28;20052;-62
2021/05/14 08:29:30;;;;;;;21.98;15.60;;;29.40;72.40;;;;;;10436394;28;20503;-62
2021/05/14 08:34:31;;;;;;;17.90;15.00;;;29.90;67.70;;;;;;10425145;28;20513;-63
2021/05/14 08:39:33;;;;;;;16.33;14.00;;;29.20;62.70;;;;;;10428828;28;20045;-64
2021/05/14 08:44:35;;;;;;;18.58;13.00;;;29.10;66.00;;;;;;10432887;28;20055;-63
2021/05/14 08:49:37;;;;;;;14.27;11.10;;;29.20;53.60;;;;;;10429765;28;20474;-62
2021/05/14 08:54:43;;;;;;;17.60;12.55;;;28.00;50.20;;;;;;10426187;28;20128;-62
2021/05/14 08:59:44;;;;;;;16.63;11.98;;;28.30;47.40;;;;;;10456402;28;20053;-63
2021/05/14 09:04:47;;;;;;;13.60;9.93;;;29.00;42.70;;;;;;10450774;28;20051;-63
2021/05/14 09:10:09;;;;;;;14.77;10.55;;;28.60;41.00;;;;;;10446880;28;20048;-63
2021/05/14 09:15:28;;;;;;;14.60;10.00;;;28.30;43.10;;;;;;10443658;28;20049;-63
2021/05/14 09:20:30;;;;;;;15.20;10.18;;;28.10;41.90;;;;;;10445330;28;20048;-64
2021/05/14 09:25:32;;;;;;;13.45;9.90;;;28.90;40.10;;;;;;10436538;28;20136;-64
2021/05/14 09:30:35;;;;;;;13.75;9.95;;;29.50;38.30;;;;;;10431871;28;20056;-64
2021/05/14 09:35:36;;;;;;;14.40;9.48;;;29.60;38.50;;;;;;10430203;28;20547;-63
2021/05/14 09:40:38;;;;;;;14.80;10.95;;;29.30;37.90;;;;;;10446811;28;20132;-63
2021/05/14 09:45:40;;;;;;;13.38;11.15;;;29.20;37.00;;;;;;10439361;28;20077;-62
2021/05/14 09:50:43;;;;;;;14.27;10.50;;;29.50;37.10;;;;;;10429413;28;20519;-63
2021/05/14 09:55:49;;;;;;;17.40;9.98;;;30.60;37.10;;;;;;10428626;28;20045;-63
2021/05/14 10:00:50;;;;;;;15.02;10.80;;;30.60;36.70;;;;;;10423021;28;20103;-63
2021/05/14 10:05:55;;;;;;;16.67;10.88;;;29.50;36.50;;;;;;10427612;28;20059;-63
2021/05/14 10:11:00;;;;;;;15.02;10.88;;;28.80;37.50;;;;;;10426912;28;20534;-62
2021/05/14 10:16:04;;;;;;;16.10;10.73;;;28.80;36.90;;;;;;10428972;28;20097;-62
2021/05/14 10:21:08;;;;;;;13.55;10.90;;;29.10;36.40;;;;;;10434388;28;20065;-62
2021/05/14 10:26:12;;;;;;;15.60;10.23;;;28.70;36.80;;;;;;10424798;28;20049;-62
2021/05/14 10:31:19;;;;;;;12.27;9.38;;;28.30;37.80;;;;;;10410497;28;20040;-63
2021/05/14 10:36:43;;;;;;;17.88;12.65;;;29.00;37.60;;;;;;10413584;28;20045;-62
2021/05/14 10:41:53;;;;;;;18.10;11.60;;;29.30;36.10;;;;;;10423707;28;20149;-63
2021/05/14 10:46:54;;;;;;;17.77;11.88;;;28.50;36.50;;;;;;10418502;28;20053;-63
2021/05/14 10:52:02;;;;;;;16.13;10.88;;;27.80;37.60;;;;;;10410598;28;20057;-62
2021/05/14 10:57:05;;;;;;;19.15;12.80;;;27.70;38.00;;;;;;10411411;28;20608;-63
2021/05/14 11:02:29;;;;;;;16.88;10.77;;;28.20;37.00;;;;;;10417298;28;20063;-62
2021/05/14 11:07:39;;;;;;;17.02;9.45;;;27.10;37.70;;;;;;10433565;28;20179;-63
2021/05/14 11:12:42;;;;;;;15.00;8.52;;;26.80;37.80;;;;;;10430180;28;20053;-62
2021/05/14 11:17:43;;;;;;;11.88;7.20;;;26.20;38.20;;;;;;10422502;28;20087;-62
2021/05/14 11:22:44;;;;;;;9.57;6.03;;;25.80;39.00;;;;;;10438271;28;20048;-63
2021/05/14 11:27:49;;;;;;;;;;;25.30;39.20;;;;;;10432988;28;20068;-62
2021/05/14 11:32:54;;;;;;;12.73;6.63;;;24.80;41.20;;;;;;10429899;28;19928;-63
2021/05/14 11:37:56;;;;;;;11.70;6.28;;;25.10;40.80;;;;;;10422622;28;20080;-62
2021/05/14 11:43:00;;;;;;;10.10;6.03;;;25.00;39.90;;;;;;10415555;28;20076;-64
2021/05/14 11:48:09;;;;;;;9.75;6.70;;;25.00;40.80;;;;;;10416363;28;20053;-62
2021/05/14 11:53:12;;;;;;;16.20;7.30;;;24.60;41.00;;;;;;10426667;28;20383;-63
2021/05/14 11:58:15;;;;;;;11.65;6.13;;;24.60;41.10;;;;;;10415153;28;20057;-63
2021/05/14 12:03:18;;;;;;;12.23;6.57;;;24.80;41.20;;;;;;10429708;28;20463;-63
2021/05/14 12:08:21;;;;;;;9.25;6.13;;;25.10;40.70;;;;;;10423774;28;20478;-63
2021/05/14 12:13:25;;;;;;;9.02;5.15;;;25.10;40.90;;;;;;10432850;28;20091;-63
2021/05/14 12:18:27;;;;;;;8.05;5.57;;;24.70;40.50;;;;;;10422890;28;20057;-62
2021/05/14 12:23:29;;;;;;;12.30;5.60;;;24.10;41.90;;;;;;10439327;28;20044;-62
2021/05/14 12:28:36;;;;;;;9.00;4.75;;;23.70;42.00;;;;;;10433586;28;20055;-63
2021/05/14 12:33:48;;;;;;;7.32;4.22;;;23.90;42.60;;;;;;10415245;28;20053;-62
2021/05/14 12:38:50;;;;;;;;;;;24.60;41.20;;;;;;10424809;28;20065;-62
2021/05/14 12:44:10;;;;;;;11.52;4.18;;;24.20;41.10;;;;;;10430893;28;19955;-62
2021/05/14 12:49:12;;;;;;;7.68;3.72;;;23.70;42.40;;;;;;10424656;28;20561;-63
2021/05/14 12:54:21;;;;;;;8.32;3.85;;;23.40;42.80;;;;;;10427823;28;20057;-64
2021/05/14 12:59:23;;;;;;;13.10;4.35;;;23.40;43.10;;;;;;10436484;28;20048;-63
2021/05/14 13:04:29;;;;;;;7.50;4.78;;;23.30;42.90;;;;;;10427461;28;20448;-62
2021/05/14 13:09:31;;;;;;;11.80;5.53;;;23.20;43.70;;;;;;10419220;28;20079;-63
2021/05/14 13:14:33;;;;;;;8.65;5.15;;;22.90;43.80;;;;;;10426251;28;20053;-62
2021/05/14 13:19:34;;;;;;;7.28;4.57;;;22.80;44.20;;;;;;10421165;28;20045;-62
2021/05/14 13:24:35;;;;;;;10.75;4.20;;;23.00;44.10;;;;;;10430295;28;20048;-63
2021/05/14 13:29:38;;;;;;;11.55;4.57;;;23.00;44.50;;;;;;10430292;28;20049;-62
2021/05/14 13:34:39;;;;;;;9.65;3.55;;;22.50;44.00;;;;;;10426082;28;20091;-62
2021/05/14 13:39:41;;;;;;;10.50;3.47;;;22.20;44.50;;;;;;10427253;28;20135;-62
2021/05/14 13:44:43;;;;;;;7.95;2.80;;;22.00;45.30;;;;;;10425546;28;20052;-61
2021/05/14 13:49:44;;;;;;;11.13;3.35;;;22.00;46.00;;;;;;10430889;28;20055;-62
2021/05/14 13:54:46;;;;;;;6.40;2.63;;;21.90;45.50;;;;;;10432312;28;20152;-62
2021/05/14 13:59:48;;;;;;;8.40;2.63;;;21.70;46.20;;;;;;10429924;28;20144;-62
2021/05/14 14:04:49;;;;;;;12.52;3.22;;;21.80;46.70;;;;;;10426855;28;20118;-61
2021/05/14 14:09:50;;;;;;;5.95;2.70;;;21.80;46.40;;;;;;10426010;28;20141;-62
2021/05/14 14:14:52;;;;;;;5.43;2.63;;;21.80;46.70;;;;;;10424443;28;20048;-62
2021/05/14 14:19:54;;;;;;;10.48;2.97;;;21.60;46.60;;;;;;10424823;28;20055;-62
2021/05/14 14:24:55;;;;;;;12.50;2.88;;;21.00;48.20;;;;;;10433220;28;20067;-62
2021/05/14 14:29:57;;;;;;;5.45;2.67;;;20.80;48.50;;;;;;10430048;28;20480;-62
2021/05/14 14:34:58;;;;;;;6.22;2.80;;;20.60;49.80;;;;;;10428422;28;20577;-61
2021/05/14 14:40:00;;;;;;;6.80;2.33;;;20.60;49.20;;;;;;10428485;28;20493;-62
2021/05/14 14:45:02;;;;;;;8.05;2.92;;;20.10;50.50;;;;;;10421649;28;20048;-62
2021/05/14 14:50:05;;;;;;;14.63;3.40;;;20.00;51.40;;;;;;10433352;28;20547;-64
2021/05/14 14:55:06;;;;;;;7.80;2.97;;;19.90;51.20;;;;;;10428054;28;20079;-62
2021/05/14 15:00:10;;;;;;;12.38;2.75;;;19.50;52.60;;;;;;10431857;28;20053;-63
2021/05/14 15:05:12;;;;;;;4.90;2.67;;;19.20;54.20;;;;;;10437359;28;20053;-64
2021/05/14 15:10:14;;;;;;;6.00;2.75;;;19.10;54.50;;;;;;10440465;28;20056;-61
2021/05/14 15:15:16;;;;;;;11.18;2.88;;;18.70;54.50;;;;;;10437568;28;20056;-62
2021/05/14 15:20:17;;;;;;;;;;;18.60;56.80;;;;;;10438980;28;20059;-62
2021/05/14 15:25:19;;;;;;;6.25;2.53;;;18.30;56.40;;;;;;10437034;28;19978;-62
2021/05/14 15:30:22;;;;;;;6.20;2.17;;;17.40;59.40;;;;;;10430526;28;20080;-62
2021/05/14 15:35:23;;;;;;;7.85;2.58;;;16.90;62.20;;;;;;10436134;28;20072;-61
2021/05/14 15:40:25;;;;;;;7.90;2.83;;;17.10;61.60;;;;;;10436576;28;20592;-61
2021/05/14 15:45:27;;;;;;;7.70;3.03;;;17.20;62.60;;;;;;10429704;28;20103;-62
2021/05/14 15:50:29;;;;;;;5.90;2.83;;;17.40;61.80;;;;;;10429199;28;20037;-62
2021/05/14 15:55:30;;;;;;;7.53;3.43;;;17.40;60.50;;;;;;10439926;28;20477;-62
2021/05/14 16:00:33;;;;;;;6.53;2.93;;;17.10;62.80;;;;;;10428074;28;20061;-62
2021/05/14 16:05:34;;;;;;;6.82;2.72;;;17.10;63.30;;;;;;10428810;28;20037;-63
2021/05/14 16:10:35;;;;;;;9.60;3.08;;;17.10;63.30;;;;;;10423376;28;20085;-63
2021/05/14 16:15:38;;;;;;;13.38;4.40;;;16.80;64.20;;;;;;10429132;28;20046;-63
2021/05/14 16:20:41;;;;;;;6.90;3.00;;;16.60;64.80;;;;;;10439738;28;20136;-62
2021/05/14 16:25:43;;;;;;;7.30;3.08;;;16.40;65.80;;;;;;10431440;28;20053;-62
2021/05/14 16:30:45;;;;;;;9.32;3.42;;;16.40;66.80;;;;;;10434540;28;20046;-63
2021/05/14 16:35:47;;;;;;;9.18;3.28;;;16.20;66.60;;;;;;10422530;28;20164;-64
2021/05/14 16:40:49;;;;;;;6.50;3.72;;;16.00;68.00;;;;;;10439047;28;20079;-62
2021/05/14 16:45:51;;;;;;;7.55;2.90;;;16.10;68.30;;;;;;10426223;28;20045;-64
2021/05/14 16:50:52;;;;;;;6.97;3.22;;;16.20;68.20;;;;;;10425513;28;20462;-62
2021/05/14 16:55:53;;;;;;;10.60;2.88;;;15.90;68.80;;;;;;10428814;28;20434;-62
2021/05/14 17:00:55;;;;;;;6.50;2.60;;;15.70;69.50;;;;;;10431353;28;20057;-62
2021/05/14 17:06:07;;;;;;;10.38;2.83;;;15.40;70.00;;;;;;10426689;28;20915;-62
2021/05/14 17:11:08;;;;;;;4.88;2.50;;;15.10;72.30;;;;;;10437370;28;20048;-63
2021/05/14 17:16:10;;;;;;;6.55;2.88;;;14.90;74.00;;;;;;10429258;28;20061;-61
2021/05/14 17:21:11;;;;;;;10.57;2.43;;;14.80;74.70;;;;;;10422859;28;20055;-61
2021/05/14 17:26:13;;;;;;;5.20;2.28;;;14.60;76.10;;;;;;10425274;28;20506;-62
2021/05/14 17:31:17;;;;;;;2.77;1.93;;;14.40;77.30;;;;;;10418930;28;20053;-62
2021/05/14 17:36:19;;;;;;;4.80;2.75;;;14.20;77.50;;;;;;10432656;28;20477;-62
2021/05/14 17:41:21;;;;;;;4.05;2.25;;;14.00;79.90;;;;;;10430795;28;20086;-62
2021/05/14 17:46:23;;;;;;;8.55;2.55;;;15.50;81.20;;;;;;10418048;28;20049;-63
2021/05/14 17:51:25;;;;;;;6.15;2.08;;;13.80;80.40;;;;;;10438940;28;20048;-62
2021/05/14 17:56:27;;;;;;;8.38;2.47;;;13.50;81.90;;;;;;10431840;28;20144;-65
2021/05/14 18:01:29;;;;;;;3.25;1.92;;;13.40;83.90;;;;;;10417231;28;20069;-62
2021/05/14 18:06:30;;;;;;;5.43;2.60;;;13.20;85.70;;;;;;10432135;28;20132;-63
2021/05/14 18:11:32;;;;;;;8.38;2.80;;;12.90;87.90;;;;;;10426076;28;20486;-62
2021/05/14 18:16:34;;;;;;;6.38;2.42;;;12.60;90.10;;;;;;10423449;28;20088;-61
2021/05/14 18:21:35;;;;;;;6.53;3.60;;;12.50;90.70;;;;;;10423814;28;20140;-63
2021/05/14 18:26:36;;;;;;;8.00;3.05;;;12.20;91.10;;;;;;10425986;28;20132;-61
2021/05/14 18:31:39;;;;;;;6.22;2.70;;;12.00;91.90;;;;;;10428518;28;20148;-62
2021/05/14 18:36:40;;;;;;;6.32;3.47;;;11.70;92.70;;;;;;10432337;28;20067;-61
2021/05/14 18:41:42;;;;;;;9.07;3.20;;;11.40;93.60;;;;;;10426969;28;20063;-63
2021/05/14 18:46:44;;;;;;;10.40;3.47;;;11.30;94.40;;;;;;10420267;28;20060;-61
2021/05/14 18:51:45;;;;;;;10.73;3.57;;;11.20;95.00;;;;;;10420475;28;20067;-61
2021/05/14 18:56:47;;;;;;;14.45;3.33;;;11.00;95.70;;;;;;10420449;28;20057;-60
2021/05/14 19:01:49;;;;;;;8.95;3.58;;;10.90;96.40;;;;;;10417878;28;20129;-60
2021/05/14 19:06:50;;;;;;;9.97;3.90;;;10.80;97.00;;;;;;10419919;28;20052;-60
2021/05/14 19:11:51;;;;;;;10.73;4.47;;;10.80;97.90;;;;;;10421102;28;20439;-61
2021/05/14 19:16:53;;;;;;;13.40;5.72;;;10.70;98.30;;;;;;10414224;28;20130;-61
2021/05/14 19:21:57;;;;;;;10.10;4.67;;;10.50;98.50;;;;;;10418902;28;20128;-61
2021/05/14 19:43:21;;;;;;;10.23;4.65;;;9.90;99.90;;;;;;10434127;28;20047;-63
2021/05/14 19:48:23;;;;;;;;;;;9.80;99.90;;;;;;10426596;28;20421;-60
2021/05/14 19:53:24;;;;;;;12.73;5.45;;;9.80;99.90;;;;;;10419781;28;19925;-60
2021/05/14 19:58:26;;;;;;;10.18;4.97;;;9.80;99.90;;;;;;10425391;28;20057;-62
2021/05/14 20:03:28;;;;;;;9.10;5.30;;;9.80;99.90;;;;;;10435067;28;20079;-61
2021/05/14 20:08:31;;;;;;;8.40;5.20;;;9.80;99.90;;;;;;10431854;28;20044;-60
2021/05/14 20:13:32;;;;;;;11.68;5.43;;;9.80;99.90;;;;;;10434885;28;20047;-60
2021/05/14 20:18:37;;;;;;;11.30;5.03;;;9.80;99.90;;;;;;10429153;28;20053;-58
2021/05/14 20:23:39;;;;;;;9.70;4.90;;;9.80;99.90;;;;;;10417535;28;20056;-61
2021/05/14 20:28:41;;;;;;;8.60;5.00;;;9.80;99.90;;;;;;10430083;28;20281;-61
2021/05/14 20:33:43;;;;;;;11.02;5.47;;;9.80;99.90;;;;;;10427982;28;20049;-61
2021/05/14 20:38:49;;;;;;;13.67;5.57;;;9.80;99.90;;;;;;10433344;28;20063;-59
2021/05/14 20:43:50;;;;;;;11.80;5.88;;;9.80;99.90;;;;;;10426634;28;20090;-60
2021/05/14 20:48:52;;;;;;;11.45;5.97;;;9.70;99.90;;;;;;10423452;28;20046;-59
2021/05/14 20:53:54;;;;;;;12.40;6.50;;;9.80;99.90;;;;;;10420663;28;20053;-60
2021/05/14 20:58:55;;;;;;;11.90;6.82;;;9.70;99.90;;;;;;10420948;28;20620;-60
2021/05/14 21:03:57;;;;;;;15.45;6.15;;;9.60;99.90;;;;;;10417638;28;20049;-60
2021/05/14 21:08:59;;;;;;;15.05;6.57;;;9.70;99.90;;;;;;10422347;28;20041;-59
2021/05/14 21:14:01;;;;;;;13.35;5.85;;;9.70;99.90;;;;;;10422059;28;20054;-60
2021/05/14 21:19:05;;;;;;;15.32;6.15;;;9.70;99.90;;;;;;10420252;28;20102;-61
2021/05/14 21:24:07;;;;;;;9.32;6.43;;;9.70;99.90;;;;;;10418498;28;20049;-59
2021/05/14 21:29:09;;;;;;;12.35;6.80;;;9.80;99.90;;;;;;10418860;28;20128;-62
2021/05/14 21:34:12;;;;;;;8.03;5.13;;;9.90;99.90;;;;;;10423050;28;20853;-60
2021/05/14 21:39:15;;;;;;;12.95;7.60;;;9.90;99.90;;;;;;10426535;28;20483;-60
2021/05/14 21:44:16;;;;;;;17.92;6.68;;;9.80;99.90;;;;;;10418884;28;20457;-61
2021/05/14 21:49:19;;;;;;;12.43;5.70;;;9.80;99.90;;;;;;10417213;28;20052;-61
2021/05/14 21:54:20;;;;;;;8.95;5.00;;;9.80;99.90;;;;;;10424648;28;20496;-61
2021/05/14 21:59:21;;;;;;;13.00;6.00;;;9.90;99.90;;;;;;10429450;28;20111;-62
2021/05/14 22:04:24;;;;;;;10.88;5.88;;;9.90;99.90;;;;;;10426731;28;20041;-61
2021/05/14 22:09:25;;;;;;;7.00;4.67;;;10.00;99.90;;;;;;10435862;28;20132;-62
2021/05/14 22:14:26;;;;;;;10.23;5.43;;;9.90;99.90;;;;;;10430354;28;20471;-62
2021/05/14 22:19:28;;;;;;;10.45;5.40;;;9.90;99.90;;;;;;10441535;28;20064;-61
2021/05/14 22:24:30;;;;;;;9.07;5.17;;;9.80;99.90;;;;;;10424873;28;20044;-61
2021/05/14 22:29:31;;;;;;;8.10;5.13;;;9.70;99.90;;;;;;10424285;28;20170;-61
2021/05/14 22:34:37;;;;;;;13.30;5.88;;;9.90;99.90;;;;;;10417828;28;20141;-62
2021/05/14 22:39:38;;;;;;;7.72;4.82;;;9.90;99.90;;;;;;10424740;28;20128;-60
2021/05/14 22:44:39;;;;;;;11.27;5.20;;;10.00;99.90;;;;;;10425904;28;20132;-61
2021/05/14 22:49:41;;;;;;;13.50;6.78;;;10.10;99.90;;;;;;10421942;28;20187;-61
2021/05/14 22:54:43;;;;;;;7.60;4.47;;;10.10;99.90;;;;;;10412692;28;20053;-60
2021/05/14 22:59:44;;;;;;;8.27;5.30;;;10.10;99.90;;;;;;10422937;28;20054;-61
2021/05/14 23:04:46;;;;;;;6.95;5.15;;;10.10;99.90;;;;;;10416630;28;20046;-61
2021/05/14 23:09:47;;;;;;;7.63;5.50;;;10.20;99.90;;;;;;10418544;28;20053;-61
2021/05/14 23:14:49;;;;;;;10.00;7.35;;;10.10;99.90;;;;;;10414549;28;20099;-61
2021/05/14 23:19:51;;;;;;;12.98;6.32;;;10.10;99.90;;;;;;10429317;28;20045;-61
2021/05/14 23:24:52;;;;;;;7.03;5.83;;;10.20;99.90;;;;;;10438790;28;20492;-62
2021/05/14 23:29:53;;;;;;;9.15;6.10;;;10.10;99.90;;;;;;10419083;28;20132;-61
2021/05/14 23:34:56;;;;;;;17.35;5.93;;;10.10;99.90;;;;;;10425550;28;20394;-61
2021/05/14 23:39:57;;;;;;;14.33;5.93;;;10.10;99.90;;;;;;10435665;28;20132;-61
2021/05/14 23:44:58;;;;;;;16.15;6.45;;;10.10;99.90;;;;;;10425151;28;20479;-61
2021/05/14 23:50:00;;;;;;;6.75;4.43;;;10.10;99.90;;;;;;10423631;28;20046;-61
2021/05/14 23:55:03;;;;;;;8.97;4.97;;;10.10;99.90;;;;;;10434457;28;20053;-61
